sensor_id;sensor_type;location;lat;lon;timestamp;temperature;humidity
1806;DHT22;901;48.142;11.516;2022-08-14T00:00:44;17.60;99.90
1806;DHT22;901;48.142;11.516;2022-08-14T00:03:18;17.60;99.90
1806;DHT22;901;48.142;11.516;2022-08-14T00:05:45;17.60;99.90
1806;DHT22;901;48.142;11.516;2022-08-14T00:08:12;17.50;99.90
1806;DHT22;901;48.142;11.516;2022-08-14T00:10:40;17.40;99.90
1806;DHT22;901;48.142;11.516;2022-08-14T00:13:07;17.40;99.90
1806;DHT22;901;48.142;11.516;2022-08-14T00:15:36;17.30;99.90
1806;DHT22;901;48.142;11.516;2022-08-14T00:18:05;17.20;99.90
1806;DHT22;901;48.142;11.516;2022-08-14T00:20:35;17.20;99.90
1806;DHT22;901;48.142;11.516;2022-08-14T00:23:04;17.10;99.90
1806;DHT22;901;48.142;11.516;2022-08-14T00:25:31;17.00;99.90
1806;DHT22;901;48.142;11.516;2022-08-14T00:28:00;16.90;99.90
1806;DHT22;901;48.142;11.516;2022-08-14T00:30:27;16.90;99.90
1806;DHT22;901;48.142;11.516;2022-08-14T00:32:54;16.90;99.90
1806;DHT22;901;48.142;11.516;2022-08-14T00:35:21;16.90;99.90
1806;DHT22;901;48.142;11.516;2022-08-14T00:37:49;16.90;99.90
1806;DHT22;901;48.142;11.516;2022-08-14T00:40:17;16.90;99.90
1806;DHT22;901;48.142;11.516;2022-08-14T00:42:45;16.90;99.90
1806;DHT22;901;48.142;11.516;2022-08-14T00:45:15;16.80;99.90
1806;DHT22;901;48.142;11.516;2022-08-14T00:47:44;16.80;99.90
1806;DHT22;901;48.142;11.516;2022-08-14T00:50:13;16.80;99.90
1806;DHT22;901;48.142;11.516;2022-08-14T00:52:42;16.80;99.90
1806;DHT22;901;48.142;11.516;2022-08-14T00:55:10;16.70;99.90
1806;DHT22;901;48.142;11.516;2022-08-14T00:57:39;16.70;99.90
1806;DHT22;901;48.142;11.516;2022-08-14T01:00:09;16.70;99.90
1806;DHT22;901;48.142;11.516;2022-08-14T01:02:40;16.70;99.90
1806;DHT22;901;48.142;11.516;2022-08-14T01:05:08;16.60;99.90
1806;DHT22;901;48.142;11.516;2022-08-14T01:07:49;16.70;99.90
1806;DHT22;901;48.142;11.516;2022-08-14T01:10:17;16.70;99.90
1806;DHT22;901;48.142;11.516;2022-08-14T01:12:44;16.70;99.90
1806;DHT22;901;48.142;11.516;2022-08-14T01:15:13;16.70;99.90
1806;DHT22;901;48.142;11.516;2022-08-14T01:17:42;16.70;99.90
1806;DHT22;901;48.142;11.516;2022-08-14T01:20:27;16.70;99.90
1806;DHT22;901;48.142;11.516;2022-08-14T01:23:14;16.70;99.90
1806;DHT22;901;48.142;11.516;2022-08-14T01:25:41;16.70;99.90
1806;DHT22;901;48.142;11.516;2022-08-14T01:28:07;16.60;99.90
1806;DHT22;901;48.142;11.516;2022-08-14T01:30:35;16.60;99.90
1806;DHT22;901;48.142;11.516;2022-08-14T01:33:03;16.50;99.90
1806;DHT22;901;48.142;11.516;2022-08-14T01:35:31;16.50;99.90
1806;DHT22;901;48.142;11.516;2022-08-14T01:37:58;16.50;99.90
1806;DHT22;901;48.142;11.516;2022-08-14T01:40:27;16.40;99.90
1806;DHT22;901;48.142;11.516;2022-08-14T01:42:56;16.40;99.90
1806;DHT22;901;48.142;11.516;2022-08-14T01:45:23;16.40;99.90
1806;DHT22;901;48.142;11.516;2022-08-14T01:47:50;16.30;99.90
1806;DHT22;901;48.142;11.516;2022-08-14T01:50:16;16.30;99.90
1806;DHT22;901;48.142;11.516;2022-08-14T01:52:44;16.30;99.90
1806;DHT22;901;48.142;11.516;2022-08-14T01:55:12;16.20;99.90
1806;DHT22;901;48.142;11.516;2022-08-14T01:57:43;16.20;99.90
1806;DHT22;901;48.142;11.516;2022-08-14T02:00:11;16.20;99.90
1806;DHT22;901;48.142;11.516;2022-08-14T02:02:41;16.20;99.90
1806;DHT22;901;48.142;11.516;2022-08-14T02:05:11;16.10;99.90
1806;DHT22;901;48.142;11.516;2022-08-14T02:07:38;16.10;99.90
1806;DHT22;901;48.142;11.516;2022-08-14T02:10:06;16.10;99.90
1806;DHT22;901;48.142;11.516;2022-08-14T02:12:34;16.10;99.90
1806;DHT22;901;48.142;11.516;2022-08-14T02:15:02;16.00;99.90
1806;DHT22;901;48.142;11.516;2022-08-14T02:17:32;16.10;99.90
1806;DHT22;901;48.142;11.516;2022-08-14T02:19:59;16.10;99.90
1806;DHT22;901;48.142;11.516;2022-08-14T02:22:26;15.90;99.90
1806;DHT22;901;48.142;11.516;2022-08-14T02:24:53;15.90;99.90
1806;DHT22;901;48.142;11.516;2022-08-14T02:27:20;15.90;99.90
1806;DHT22;901;48.142;11.516;2022-08-14T02:29:46;15.80;99.90
1806;DHT22;901;48.142;11.516;2022-08-14T02:32:15;15.70;99.90
1806;DHT22;901;48.142;11.516;2022-08-14T02:34:42;15.70;99.90
1806;DHT22;901;48.142;11.516;2022-08-14T02:37:10;15.70;99.90
1806;DHT22;901;48.142;11.516;2022-08-14T02:39:40;15.60;99.90
1806;DHT22;901;48.142;11.516;2022-08-14T02:42:09;15.60;99.90
1806;DHT22;901;48.142;11.516;2022-08-14T02:44:37;15.60;99.90
1806;DHT22;901;48.142;11.516;2022-08-14T02:47:04;15.60;99.90
1806;DHT22;901;48.142;11.516;2022-08-14T02:49:34;15.60;99.90
1806;DHT22;901;48.142;11.516;2022-08-14T02:52:03;15.50;99.90
1806;DHT22;901;48.142;11.516;2022-08-14T02:54:32;15.50;99.90
1806;DHT22;901;48.142;11.516;2022-08-14T02:57:00;15.40;99.90
1806;DHT22;901;48.142;11.516;2022-08-14T02:59:31;15.40;99.90
1806;DHT22;901;48.142;11.516;2022-08-14T03:01:58;15.30;99.90
1806;DHT22;901;48.142;11.516;2022-08-14T03:04:25;15.40;99.90
1806;DHT22;901;48.142;11.516;2022-08-14T03:06:55;15.30;99.90
1806;DHT22;901;48.142;11.516;2022-08-14T03:09:22;15.30;99.90
1806;DHT22;901;48.142;11.516;2022-08-14T03:11:49;15.30;99.90
1806;DHT22;901;48.142;11.516;2022-08-14T03:14:16;15.30;99.90
1806;DHT22;901;48.142;11.516;2022-08-14T03:16:45;15.30;99.90
1806;DHT22;901;48.142;11.516;2022-08-14T03:19:14;15.30;99.90
1806;DHT22;901;48.142;11.516;2022-08-14T03:21:42;15.30;99.90
1806;DHT22;901;48.142;11.516;2022-08-14T03:24:11;15.30;99.90
1806;DHT22;901;48.142;11.516;2022-08-14T03:26:38;15.30;99.90
1806;DHT22;901;48.142;11.516;2022-08-14T03:29:06;15.30;99.90
1806;DHT22;901;48.142;11.516;2022-08-14T03:31:33;15.40;99.90
1806;DHT22;901;48.142;11.516;2022-08-14T03:34:02;15.40;99.90
1806;DHT22;901;48.142;11.516;2022-08-14T03:36:30;15.40;99.90
1806;DHT22;901;48.142;11.516;2022-08-14T03:38:58;15.40;99.90
1806;DHT22;901;48.142;11.516;2022-08-14T03:41:27;15.40;99.90
1806;DHT22;901;48.142;11.516;2022-08-14T03:43:56;15.40;99.90
1806;DHT22;901;48.142;11.516;2022-08-14T03:46:23;15.40;99.90
1806;DHT22;901;48.142;11.516;2022-08-14T03:48:52;15.50;99.90
1806;DHT22;901;48.142;11.516;2022-08-14T03:51:21;15.50;99.90
1806;DHT22;901;48.142;11.516;2022-08-14T03:53:54;15.60;99.90
1806;DHT22;901;48.142;11.516;2022-08-14T03:56:21;15.60;99.90
1806;DHT22;901;48.142;11.516;2022-08-14T03:58:53;15.60;99.90
1806;DHT22;901;48.142;11.516;2022-08-14T04:01:21;15.60;99.90
1806;DHT22;901;48.142;11.516;2022-08-14T04:03:50;15.60;99.90
1806;DHT22;901;48.142;11.516;2022-08-14T04:06:17;15.50;99.90
1806;DHT22;901;48.142;11.516;2022-08-14T04:08:46;15.60;99.90
1806;DHT22;901;48.142;11.516;2022-08-14T04:11:13;15.50;99.90
1806;DHT22;901;48.142;11.516;2022-08-14T04:13:41;15.60;99.90
1806;DHT22;901;48.142;11.516;2022-08-14T04:16:13;15.60;99.90
1806;DHT22;901;48.142;11.516;2022-08-14T04:18:41;15.60;99.90
1806;DHT22;901;48.142;11.516;2022-08-14T04:21:09;15.60;99.90
1806;DHT22;901;48.142;11.516;2022-08-14T04:23:36;15.60;99.90
1806;DHT22;901;48.142;11.516;2022-08-14T04:26:06;15.80;99.90
1806;DHT22;901;48.142;11.516;2022-08-14T04:28:34;15.90;99.90
1806;DHT22;901;48.142;11.516;2022-08-14T04:31:01;16.10;99.90
1806;DHT22;901;48.142;11.516;2022-08-14T04:33:29;16.30;99.90
1806;DHT22;901;48.142;11.516;2022-08-14T04:35:56;16.50;99.90
1806;DHT22;901;48.142;11.516;2022-08-14T04:38:23;16.80;99.90
1806;DHT22;901;48.142;11.516;2022-08-14T04:41:08;17.10;99.90
1806;DHT22;901;48.142;11.516;2022-08-14T04:43:52;17.50;99.90
1806;DHT22;901;48.142;11.516;2022-08-14T04:46:21;17.90;99.90
1806;DHT22;901;48.142;11.516;2022-08-14T04:48:50;18.20;99.90
1806;DHT22;901;48.142;11.516;2022-08-14T04:51:18;18.50;99.90
1806;DHT22;901;48.142;11.516;2022-08-14T04:53:47;18.80;99.90
1806;DHT22;901;48.142;11.516;2022-08-14T04:56:17;19.10;99.90
1806;DHT22;901;48.142;11.516;2022-08-14T04:58:47;19.40;99.90
1806;DHT22;901;48.142;11.516;2022-08-14T05:01:15;19.80;99.90
1806;DHT22;901;48.142;11.516;2022-08-14T05:03:42;20.10;99.90
1806;DHT22;901;48.142;11.516;2022-08-14T05:06:11;20.40;99.90
1806;DHT22;901;48.142;11.516;2022-08-14T05:08:38;20.70;99.90
1806;DHT22;901;48.142;11.516;2022-08-14T05:11:06;21.00;99.90
1806;DHT22;901;48.142;11.516;2022-08-14T05:13:34;21.30;99.90
1806;DHT22;901;48.142;11.516;2022-08-14T05:16:04;21.70;99.90
1806;DHT22;901;48.142;11.516;2022-08-14T05:18:34;21.90;99.90
1806;DHT22;901;48.142;11.516;2022-08-14T05:21:03;22.20;99.90
1806;DHT22;901;48.142;11.516;2022-08-14T05:23:34;22.50;99.90
1806;DHT22;901;48.142;11.516;2022-08-14T05:26:01;22.80;99.90
1806;DHT22;901;48.142;11.516;2022-08-14T05:28:32;23.00;99.90
1806;DHT22;901;48.142;11.516;2022-08-14T05:31:01;23.30;99.90
1806;DHT22;901;48.142;11.516;2022-08-14T05:33:29;23.40;99.90
1806;DHT22;901;48.142;11.516;2022-08-14T05:35:58;23.60;99.90
1806;DHT22;901;48.142;11.516;2022-08-14T05:38:29;23.80;99.90
1806;DHT22;901;48.142;11.516;2022-08-14T05:41:00;23.80;99.90
1806;DHT22;901;48.142;11.516;2022-08-14T05:43:27;23.90;99.90
1806;DHT22;901;48.142;11.516;2022-08-14T05:45:55;24.10;99.90
1806;DHT22;901;48.142;11.516;2022-08-14T05:48:23;24.20;99.90
1806;DHT22;901;48.142;11.516;2022-08-14T05:50:51;24.20;99.90
1806;DHT22;901;48.142;11.516;2022-08-14T05:53:19;24.30;99.90
1806;DHT22;901;48.142;11.516;2022-08-14T05:55:46;24.40;99.90
1806;DHT22;901;48.142;11.516;2022-08-14T05:58:14;24.50;99.90
1806;DHT22;901;48.142;11.516;2022-08-14T06:00:43;24.40;99.90
1806;DHT22;901;48.142;11.516;2022-08-14T06:03:12;24.40;99.90
1806;DHT22;901;48.142;11.516;2022-08-14T06:05:41;24.40;99.90
1806;DHT22;901;48.142;11.516;2022-08-14T06:08:15;24.40;99.90
1806;DHT22;901;48.142;11.516;2022-08-14T06:10:43;24.40;99.90
1806;DHT22;901;48.142;11.516;2022-08-14T06:13:10;24.40;99.90
1806;DHT22;901;48.142;11.516;2022-08-14T06:15:39;24.10;99.90
1806;DHT22;901;48.142;11.516;2022-08-14T06:18:06;23.90;99.90
1806;DHT22;901;48.142;11.516;2022-08-14T06:20:34;23.70;99.90
1806;DHT22;901;48.142;11.516;2022-08-14T06:23:01;23.40;99.90
1806;DHT22;901;48.142;11.516;2022-08-14T06:25:28;23.20;99.90
1806;DHT22;901;48.142;11.516;2022-08-14T06:27:54;23.00;99.90
1806;DHT22;901;48.142;11.516;2022-08-14T06:30:24;22.80;99.90
1806;DHT22;901;48.142;11.516;2022-08-14T06:32:52;22.60;99.90
1806;DHT22;901;48.142;11.516;2022-08-14T06:35:19;22.40;99.90
1806;DHT22;901;48.142;11.516;2022-08-14T06:37:49;22.40;99.90
1806;DHT22;901;48.142;11.516;2022-08-14T06:40:18;22.40;99.90
1806;DHT22;901;48.142;11.516;2022-08-14T06:42:45;22.30;99.90
1806;DHT22;901;48.142;11.516;2022-08-14T06:45:12;22.30;99.90
1806;DHT22;901;48.142;11.516;2022-08-14T06:47:41;22.20;99.90
1806;DHT22;901;48.142;11.516;2022-08-14T06:50:11;22.20;99.90
1806;DHT22;901;48.142;11.516;2022-08-14T06:52:40;22.20;99.90
1806;DHT22;901;48.142;11.516;2022-08-14T06:55:10;22.20;99.90
1806;DHT22;901;48.142;11.516;2022-08-14T06:57:38;22.30;99.90
1806;DHT22;901;48.142;11.516;2022-08-14T07:00:07;22.40;99.90
1806;DHT22;901;48.142;11.516;2022-08-14T07:02:34;22.50;99.90
1806;DHT22;901;48.142;11.516;2022-08-14T07:05:20;22.50;99.90
1806;DHT22;901;48.142;11.516;2022-08-14T07:08:05;22.50;99.90
1806;DHT22;901;48.142;11.516;2022-08-14T07:10:32;22.60;99.90
1806;DHT22;901;48.142;11.516;2022-08-14T07:12:59;22.60;99.90
1806;DHT22;901;48.142;11.516;2022-08-14T07:15:26;22.50;99.90
1806;DHT22;901;48.142;11.516;2022-08-14T07:17:53;22.50;99.90
1806;DHT22;901;48.142;11.516;2022-08-14T07:20:21;22.60;99.90
1806;DHT22;901;48.142;11.516;2022-08-14T07:22:48;22.70;99.90
1806;DHT22;901;48.142;11.516;2022-08-14T07:25:15;22.70;99.90
1806;DHT22;901;48.142;11.516;2022-08-14T07:27:42;22.80;99.90
1806;DHT22;901;48.142;11.516;2022-08-14T07:30:10;22.80;99.90
1806;DHT22;901;48.142;11.516;2022-08-14T07:32:37;22.90;99.90
1806;DHT22;901;48.142;11.516;2022-08-14T07:35:04;23.00;99.90
1806;DHT22;901;48.142;11.516;2022-08-14T07:37:33;23.00;99.90
1806;DHT22;901;48.142;11.516;2022-08-14T07:40:00;23.10;99.90
1806;DHT22;901;48.142;11.516;2022-08-14T07:42:27;23.20;99.90
1806;DHT22;901;48.142;11.516;2022-08-14T07:44:56;23.20;99.90
1806;DHT22;901;48.142;11.516;2022-08-14T07:47:23;23.20;99.90
1806;DHT22;901;48.142;11.516;2022-08-14T07:49:57;23.20;99.90
1806;DHT22;901;48.142;11.516;2022-08-14T07:52:26;23.30;99.90
1806;DHT22;901;48.142;11.516;2022-08-14T07:54:54;23.30;99.90
1806;DHT22;901;48.142;11.516;2022-08-14T07:57:21;23.40;99.90
1806;DHT22;901;48.142;11.516;2022-08-14T07:59:48;23.40;99.90
1806;DHT22;901;48.142;11.516;2022-08-14T08:02:18;23.40;99.90
1806;DHT22;901;48.142;11.516;2022-08-14T08:04:47;23.50;99.90
1806;DHT22;901;48.142;11.516;2022-08-14T08:07:14;23.60;99.90
1806;DHT22;901;48.142;11.516;2022-08-14T08:09:42;23.70;99.90
1806;DHT22;901;48.142;11.516;2022-08-14T08:12:12;23.70;99.90
1806;DHT22;901;48.142;11.516;2022-08-14T08:14:40;23.90;99.90
1806;DHT22;901;48.142;11.516;2022-08-14T08:17:08;23.90;99.90
1806;DHT22;901;48.142;11.516;2022-08-14T08:19:35;24.10;99.90
1806;DHT22;901;48.142;11.516;2022-08-14T08:22:03;24.20;99.90
1806;DHT22;901;48.142;11.516;2022-08-14T08:24:30;24.30;99.90
1806;DHT22;901;48.142;11.516;2022-08-14T08:26:56;24.30;99.90
1806;DHT22;901;48.142;11.516;2022-08-14T08:29:25;24.40;99.90
1806;DHT22;901;48.142;11.516;2022-08-14T08:31:51;24.50;99.90
1806;DHT22;901;48.142;11.516;2022-08-14T08:34:19;24.60;99.90
1806;DHT22;901;48.142;11.516;2022-08-14T08:36:46;24.80;99.90
1806;DHT22;901;48.142;11.516;2022-08-14T08:39:13;24.90;99.90
1806;DHT22;901;48.142;11.516;2022-08-14T08:41:41;25.10;99.90
1806;DHT22;901;48.142;11.516;2022-08-14T08:44:08;25.20;99.30
1806;DHT22;901;48.142;11.516;2022-08-14T08:46:36;25.30;99.10
1806;DHT22;901;48.142;11.516;2022-08-14T08:49:05;25.40;98.70
1806;DHT22;901;48.142;11.516;2022-08-14T08:51:33;25.40;98.20
1806;DHT22;901;48.142;11.516;2022-08-14T08:54:05;25.40;98.00
1806;DHT22;901;48.142;11.516;2022-08-14T08:56:37;25.40;97.70
1806;DHT22;901;48.142;11.516;2022-08-14T08:59:18;25.40;98.00
1806;DHT22;901;48.142;11.516;2022-08-14T09:01:53;25.60;97.70
1806;DHT22;901;48.142;11.516;2022-08-14T09:04:22;25.60;97.50
1806;DHT22;901;48.142;11.516;2022-08-14T09:06:49;25.70;97.40
1806;DHT22;901;48.142;11.516;2022-08-14T09:09:18;25.70;96.90
1806;DHT22;901;48.142;11.516;2022-08-14T09:11:45;25.70;96.80
1806;DHT22;901;48.142;11.516;2022-08-14T09:14:12;25.80;96.80
1806;DHT22;901;48.142;11.516;2022-08-14T09:16:39;25.90;96.50
1806;DHT22;901;48.142;11.516;2022-08-14T09:19:08;26.00;96.10
1806;DHT22;901;48.142;11.516;2022-08-14T09:21:37;26.00;95.90
1806;DHT22;901;48.142;11.516;2022-08-14T09:24:05;26.00;96.40
1806;DHT22;901;48.142;11.516;2022-08-14T09:26:33;25.90;96.30
1806;DHT22;901;48.142;11.516;2022-08-14T09:29:01;25.90;96.20
1806;DHT22;901;48.142;11.516;2022-08-14T09:31:29;25.90;95.90
1806;DHT22;901;48.142;11.516;2022-08-14T09:34:06;26.10;96.10
1806;DHT22;901;48.142;11.516;2022-08-14T09:36:42;26.20;95.60
1806;DHT22;901;48.142;11.516;2022-08-14T09:39:20;26.30;95.20
1806;DHT22;901;48.142;11.516;2022-08-14T09:42:02;26.50;95.60
1806;DHT22;901;48.142;11.516;2022-08-14T09:44:41;26.60;94.70
1806;DHT22;901;48.142;11.516;2022-08-14T09:47:10;26.70;94.30
1806;DHT22;901;48.142;11.516;2022-08-14T09:49:39;26.80;93.70
1806;DHT22;901;48.142;11.516;2022-08-14T09:52:10;26.90;93.50
1806;DHT22;901;48.142;11.516;2022-08-14T09:54:38;26.90;93.20
1806;DHT22;901;48.142;11.516;2022-08-14T09:57:06;27.00;93.10
1806;DHT22;901;48.142;11.516;2022-08-14T09:59:41;26.90;92.90
1806;DHT22;901;48.142;11.516;2022-08-14T10:02:24;26.80;92.80
1806;DHT22;901;48.142;11.516;2022-08-14T10:05:03;26.80;92.90
1806;DHT22;901;48.142;11.516;2022-08-14T10:07:34;26.80;92.90
1806;DHT22;901;48.142;11.516;2022-08-14T10:10:03;26.90;91.60
1806;DHT22;901;48.142;11.516;2022-08-14T10:12:43;27.00;90.00
1806;DHT22;901;48.142;11.516;2022-08-14T10:15:15;27.10;90.20
1806;DHT22;901;48.142;11.516;2022-08-14T10:17:42;27.20;88.60
1806;DHT22;901;48.142;11.516;2022-08-14T10:20:11;27.30;88.40
1806;DHT22;901;48.142;11.516;2022-08-14T10:22:41;27.40;87.80
1806;DHT22;901;48.142;11.516;2022-08-14T10:25:10;27.40;84.80
1806;DHT22;901;48.142;11.516;2022-08-14T10:27:39;27.40;87.50
1806;DHT22;901;48.142;11.516;2022-08-14T10:30:13;27.50;87.20
1806;DHT22;901;48.142;11.516;2022-08-14T10:32:43;27.50;85.70
1806;DHT22;901;48.142;11.516;2022-08-14T10:35:12;27.60;87.20
1806;DHT22;901;48.142;11.516;2022-08-14T10:37:42;27.70;87.60
1806;DHT22;901;48.142;11.516;2022-08-14T10:40:13;27.60;86.90
1806;DHT22;901;48.142;11.516;2022-08-14T10:42:41;27.60;86.90
1806;DHT22;901;48.142;11.516;2022-08-14T10:45:19;27.60;83.40
1806;DHT22;901;48.142;11.516;2022-08-14T10:47:46;27.70;84.10
1806;DHT22;901;48.142;11.516;2022-08-14T10:50:14;27.90;82.10
1806;DHT22;901;48.142;11.516;2022-08-14T10:52:44;28.10;83.40
1806;DHT22;901;48.142;11.516;2022-08-14T10:55:13;28.10;83.10
1806;DHT22;901;48.142;11.516;2022-08-14T10:57:48;28.10;81.20
1806;DHT22;901;48.142;11.516;2022-08-14T11:00:17;28.10;80.20
1806;DHT22;901;48.142;11.516;2022-08-14T11:02:57;28.20;80.80
1806;DHT22;901;48.142;11.516;2022-08-14T11:05:24;28.20;82.20
1806;DHT22;901;48.142;11.516;2022-08-14T11:07:58;28.40;81.60
1806;DHT22;901;48.142;11.516;2022-08-14T11:10:38;28.40;79.10
1806;DHT22;901;48.142;11.516;2022-08-14T11:13:06;28.50;80.00
1806;DHT22;901;48.142;11.516;2022-08-14T11:15:34;28.50;78.70
1806;DHT22;901;48.142;11.516;2022-08-14T11:18:02;28.40;77.80
1806;DHT22;901;48.142;11.516;2022-08-14T11:20:30;28.40;77.50
1806;DHT22;901;48.142;11.516;2022-08-14T11:22:59;28.30;77.00
1806;DHT22;901;48.142;11.516;2022-08-14T11:25:28;28.00;77.30
1806;DHT22;901;48.142;11.516;2022-08-14T11:27:57;28.10;77.00
1806;DHT22;901;48.142;11.516;2022-08-14T11:30:27;28.10;76.20
1806;DHT22;901;48.142;11.516;2022-08-14T11:32:56;28.10;77.10
1806;DHT22;901;48.142;11.516;2022-08-14T11:35:24;28.10;77.40
1806;DHT22;901;48.142;11.516;2022-08-14T11:37:53;28.10;76.60
1806;DHT22;901;48.142;11.516;2022-08-14T11:40:22;28.10;76.30
1806;DHT22;901;48.142;11.516;2022-08-14T11:42:51;28.10;75.70
1806;DHT22;901;48.142;11.516;2022-08-14T11:45:20;28.00;75.50
1806;DHT22;901;48.142;11.516;2022-08-14T11:47:48;28.10;74.90
1806;DHT22;901;48.142;11.516;2022-08-14T11:50:16;28.10;74.80
1806;DHT22;901;48.142;11.516;2022-08-14T11:52:44;28.20;74.60
1806;DHT22;901;48.142;11.516;2022-08-14T11:55:14;28.30;74.90
1806;DHT22;901;48.142;11.516;2022-08-14T11:57:43;28.40;75.30
1806;DHT22;901;48.142;11.516;2022-08-14T12:00:12;28.40;74.60
1806;DHT22;901;48.142;11.516;2022-08-14T12:02:52;28.40;74.40
1806;DHT22;901;48.142;11.516;2022-08-14T12:05:30;28.40;74.00
1806;DHT22;901;48.142;11.516;2022-08-14T12:07:58;28.50;73.30
1806;DHT22;901;48.142;11.516;2022-08-14T12:10:25;28.60;73.30
1806;DHT22;901;48.142;11.516;2022-08-14T12:12:55;28.70;72.80
1806;DHT22;901;48.142;11.516;2022-08-14T12:15:33;28.80;71.70
1806;DHT22;901;48.142;11.516;2022-08-14T12:18:01;28.80;71.80
1806;DHT22;901;48.142;11.516;2022-08-14T12:20:29;28.80;70.40
1806;DHT22;901;48.142;11.516;2022-08-14T12:22:57;28.80;69.90
1806;DHT22;901;48.142;11.516;2022-08-14T12:25:26;28.80;69.60
1806;DHT22;901;48.142;11.516;2022-08-14T12:27:56;28.70;68.90
1806;DHT22;901;48.142;11.516;2022-08-14T12:30:27;28.80;68.50
1806;DHT22;901;48.142;11.516;2022-08-14T12:32:54;28.80;68.10
1806;DHT22;901;48.142;11.516;2022-08-14T12:35:34;28.80;68.30
1806;DHT22;901;48.142;11.516;2022-08-14T12:38:01;29.20;68.40
1806;DHT22;901;48.142;11.516;2022-08-14T12:40:29;28.70;67.60
1806;DHT22;901;48.142;11.516;2022-08-14T12:43:00;28.80;67.00
1806;DHT22;901;48.142;11.516;2022-08-14T12:45:32;28.80;66.50
1806;DHT22;901;48.142;11.516;2022-08-14T12:48:03;28.80;66.70
1806;DHT22;901;48.142;11.516;2022-08-14T12:50:35;28.90;66.40
1806;DHT22;901;48.142;11.516;2022-08-14T12:53:02;28.80;65.80
1806;DHT22;901;48.142;11.516;2022-08-14T12:55:29;29.00;66.60
1806;DHT22;901;48.142;11.516;2022-08-14T12:58:02;29.00;65.70
1806;DHT22;901;48.142;11.516;2022-08-14T13:00:31;29.00;67.70
1806;DHT22;901;48.142;11.516;2022-08-14T13:02:59;29.10;68.70
1806;DHT22;901;48.142;11.516;2022-08-14T13:05:28;29.20;68.90
1806;DHT22;901;48.142;11.516;2022-08-14T13:07:56;29.30;75.60
1806;DHT22;901;48.142;11.516;2022-08-14T13:10:24;29.30;66.80
1806;DHT22;901;48.142;11.516;2022-08-14T13:12:54;29.30;65.30
1806;DHT22;901;48.142;11.516;2022-08-14T13:15:22;29.30;64.50
1806;DHT22;901;48.142;11.516;2022-08-14T13:17:52;29.40;64.50
1806;DHT22;901;48.142;11.516;2022-08-14T13:20:21;29.50;63.60
1806;DHT22;901;48.142;11.516;2022-08-14T13:22:49;29.60;64.30
1806;DHT22;901;48.142;11.516;2022-08-14T13:25:19;29.70;65.20
1806;DHT22;901;48.142;11.516;2022-08-14T13:27:48;29.80;72.50
1806;DHT22;901;48.142;11.516;2022-08-14T13:30:17;29.60;70.70
1806;DHT22;901;48.142;11.516;2022-08-14T13:32:46;29.50;72.10
1806;DHT22;901;48.142;11.516;2022-08-14T13:35:14;29.30;73.40
1806;DHT22;901;48.142;11.516;2022-08-14T13:37:42;29.30;74.40
1806;DHT22;901;48.142;11.516;2022-08-14T13:40:11;29.20;74.80
1806;DHT22;901;48.142;11.516;2022-08-14T13:42:41;29.30;73.10
1806;DHT22;901;48.142;11.516;2022-08-14T13:45:10;29.20;73.80
1806;DHT22;901;48.142;11.516;2022-08-14T13:47:37;29.20;73.70
1806;DHT22;901;48.142;11.516;2022-08-14T13:50:09;29.20;76.30
1806;DHT22;901;48.142;11.516;2022-08-14T13:52:40;29.30;71.50
1806;DHT22;901;48.142;11.516;2022-08-14T13:55:08;29.20;76.00
1806;DHT22;901;48.142;11.516;2022-08-14T13:57:39;29.00;78.20
1806;DHT22;901;48.142;11.516;2022-08-14T14:00:09;29.00;78.30
1806;DHT22;901;48.142;11.516;2022-08-14T14:02:37;29.00;77.00
1806;DHT22;901;48.142;11.516;2022-08-14T14:05:07;29.10;77.10
1806;DHT22;901;48.142;11.516;2022-08-14T14:07:35;29.20;74.50
1806;DHT22;901;48.142;11.516;2022-08-14T14:10:06;29.20;73.20
1806;DHT22;901;48.142;11.516;2022-08-14T14:12:35;29.30;71.20
1806;DHT22;901;48.142;11.516;2022-08-14T14:15:04;29.20;76.30
1806;DHT22;901;48.142;11.516;2022-08-14T14:17:31;29.30;77.70
1806;DHT22;901;48.142;11.516;2022-08-14T14:20:00;29.30;77.10
1806;DHT22;901;48.142;11.516;2022-08-14T14:22:29;29.30;77.60
1806;DHT22;901;48.142;11.516;2022-08-14T14:24:56;29.20;77.70
1806;DHT22;901;48.142;11.516;2022-08-14T14:27:25;29.20;77.90
1806;DHT22;901;48.142;11.516;2022-08-14T14:29:57;29.10;79.00
1806;DHT22;901;48.142;11.516;2022-08-14T14:32:30;29.00;78.50
1806;DHT22;901;48.142;11.516;2022-08-14T14:34:59;29.10;77.30
1806;DHT22;901;48.142;11.516;2022-08-14T14:37:29;29.20;77.50
1806;DHT22;901;48.142;11.516;2022-08-14T14:39:57;29.20;78.20
1806;DHT22;901;48.142;11.516;2022-08-14T14:42:25;29.10;78.00
1806;DHT22;901;48.142;11.516;2022-08-14T14:44:58;29.10;78.70
1806;DHT22;901;48.142;11.516;2022-08-14T14:47:27;29.20;78.50
1806;DHT22;901;48.142;11.516;2022-08-14T14:49:55;29.00;77.10
1806;DHT22;901;48.142;11.516;2022-08-14T14:52:22;29.00;76.80
1806;DHT22;901;48.142;11.516;2022-08-14T14:54:52;29.00;76.40
1806;DHT22;901;48.142;11.516;2022-08-14T14:57:19;29.10;76.90
1806;DHT22;901;48.142;11.516;2022-08-14T14:59:46;29.20;76.30
1806;DHT22;901;48.142;11.516;2022-08-14T15:02:29;29.20;75.40
1806;DHT22;901;48.142;11.516;2022-08-14T15:04:58;29.30;75.10
1806;DHT22;901;48.142;11.516;2022-08-14T15:07:24;29.30;74.30
1806;DHT22;901;48.142;11.516;2022-08-14T15:09:53;29.30;75.10
1806;DHT22;901;48.142;11.516;2022-08-14T15:12:19;29.30;72.60
1806;DHT22;901;48.142;11.516;2022-08-14T15:14:47;29.30;72.70
1806;DHT22;901;48.142;11.516;2022-08-14T15:17:14;29.30;74.00
1806;DHT22;901;48.142;11.516;2022-08-14T15:19:41;29.30;73.80
1806;DHT22;901;48.142;11.516;2022-08-14T15:22:10;29.30;74.60
1806;DHT22;901;48.142;11.516;2022-08-14T15:24:37;29.20;74.20
1806;DHT22;901;48.142;11.516;2022-08-14T15:27:06;29.20;74.70
1806;DHT22;901;48.142;11.516;2022-08-14T15:29:34;29.20;76.20
1806;DHT22;901;48.142;11.516;2022-08-14T15:32:06;29.20;75.50
1806;DHT22;901;48.142;11.516;2022-08-14T15:34:34;29.10;74.50
1806;DHT22;901;48.142;11.516;2022-08-14T15:37:03;29.10;74.60
1806;DHT22;901;48.142;11.516;2022-08-14T15:39:30;29.00;75.30
1806;DHT22;901;48.142;11.516;2022-08-14T15:41:57;29.10;76.40
1806;DHT22;901;48.142;11.516;2022-08-14T15:44:28;29.20;76.30
1806;DHT22;901;48.142;11.516;2022-08-14T15:46:58;29.20;75.80
1806;DHT22;901;48.142;11.516;2022-08-14T15:49:26;29.00;75.30
1806;DHT22;901;48.142;11.516;2022-08-14T15:51:54;29.00;76.10
1806;DHT22;901;48.142;11.516;2022-08-14T15:54:23;28.90;75.50
1806;DHT22;901;48.142;11.516;2022-08-14T15:56:58;29.00;75.80
1806;DHT22;901;48.142;11.516;2022-08-14T15:59:27;29.00;76.20
1806;DHT22;901;48.142;11.516;2022-08-14T16:02:15;28.90;75.60
1806;DHT22;901;48.142;11.516;2022-08-14T16:04:41;28.80;77.00
1806;DHT22;901;48.142;11.516;2022-08-14T16:07:08;28.90;77.20
1806;DHT22;901;48.142;11.516;2022-08-14T16:09:36;28.90;77.00
1806;DHT22;901;48.142;11.516;2022-08-14T16:12:03;28.90;76.70
1806;DHT22;901;48.142;11.516;2022-08-14T16:14:32;28.90;76.50